Terminal Aerodrome Forecast
Issued by NWS Louisville, KY

Home | Current Version | Previous Version | Text Only | Print | Product List | Glossary On
Versions: 1 2 3 4 5 6 7 8 9 10 11 12 13 14 15 16 17
000
FTUS43 KLMK 241900 AAA
TAFLEX
TAF AMD
KLEX 241949Z 2420/2518 27017G27KT 4SM -SHRA BR BKN015
     FM242300 27011KT P6SM OVC018=

USA.gov is the U.S. government's official web portal to all federal, state and local government web resources and services.